Wirtz, Virginia
Current Conditions -  °F | °C
As of 6:54 PM on Saturday 25 Oct 2014 (Local Time) from KROA Reporting Station
Scattered Clouds Scattered Clouds  
Wind Chill: 67°   Ceiling: Unl
Heat Index: 67°   Visibility: 10mi
Dew Point: 44°   Wind: 13mph
Humidity: 44%   Direction: 270°W
Pressure: 29.89"   Gusts: NA
Location:  37.06°N, 79.7°W
Report Text: KROA 252254Z 27011KT 10SM FEW055 FEW080 SCT250 19/07 A2989 RMK AO2 SLP118 T01940067
Loading
Personal Weather Stations






























Interactive Weather Map
Tropical Storm Tracking
New forecast layout! Learn more

10-Day Weather Forecast

Advertisements
Track Severe Weather on mobile